createdAt,value
2023-02-12T00:00:43.655Z,5.90
2023-02-12T00:03:10.493Z,5.90
2023-02-12T00:05:41.546Z,5.80
2023-02-12T00:08:08.761Z,5.80
2023-02-12T00:10:35.348Z,5.80
2023-02-12T00:13:01.889Z,5.80
2023-02-12T00:15:28.518Z,5.80
2023-02-12T00:17:55.051Z,5.80
2023-02-12T00:20:21.608Z,5.90
2023-02-12T00:22:48.151Z,5.90
2023-02-12T00:25:14.816Z,6.00
2023-02-12T00:27:41.347Z,6.00
2023-02-12T00:30:08.048Z,6.00
2023-02-12T00:32:34.577Z,5.90
2023-02-12T00:35:01.503Z,5.90
2023-02-12T00:37:28.047Z,5.90
2023-02-12T00:39:54.580Z,5.90
2023-02-12T00:42:21.117Z,5.90
2023-02-12T00:44:47.691Z,5.90
2023-02-12T00:47:14.193Z,5.90
2023-02-12T00:49:40.834Z,5.80
2023-02-12T00:52:07.392Z,5.70
2023-02-12T00:54:34.037Z,5.80
2023-02-12T00:57:00.714Z,5.80
2023-02-12T00:59:27.529Z,5.70
2023-02-12T01:01:55.143Z,5.70
2023-02-12T01:04:22.624Z,5.70
2023-02-12T01:06:49.167Z,5.70
2023-02-12T01:09:15.818Z,5.70
2023-02-12T01:11:42.341Z,5.70
2023-02-12T01:14:08.852Z,5.80
2023-02-12T01:16:36.620Z,5.80
2023-02-12T01:19:04.453Z,5.90
2023-02-12T01:21:32.191Z,5.90
2023-02-12T01:23:59.137Z,5.90
2023-02-12T01:26:26.582Z,5.90
2023-02-12T01:28:54.449Z,6.00
2023-02-12T01:31:25.388Z,6.00
2023-02-12T01:33:53.354Z,6.00
2023-02-12T01:36:20.388Z,5.90
2023-02-12T01:38:47.232Z,5.90
2023-02-12T01:41:15.352Z,5.80
2023-02-12T01:43:42.103Z,5.80
2023-02-12T01:46:10.232Z,5.80
2023-02-12T01:48:38.642Z,5.70
2023-02-12T01:51:06.591Z,5.70
2023-02-12T01:53:35.724Z,5.70
2023-02-12T01:56:02.870Z,5.70
2023-02-12T01:58:35.589Z,5.70
2023-02-12T02:01:06.308Z,5.60
2023-02-12T02:03:33.820Z,5.70
2023-02-12T02:06:06.370Z,5.70
2023-02-12T02:08:33.923Z,5.70
2023-02-12T02:11:00.558Z,5.70
2023-02-12T02:13:45.891Z,5.70
2023-02-12T02:16:20.080Z,5.80
2023-02-12T02:18:53.284Z,5.70
2023-02-12T02:21:29.463Z,5.70
2023-02-12T02:24:14.663Z,5.70
2023-02-12T02:26:50.508Z,5.80
2023-02-12T02:29:34.688Z,5.80
2023-02-12T02:32:06.310Z,5.90
2023-02-12T02:34:40.844Z,5.80
2023-02-12T02:37:14.229Z,5.80
2023-02-12T02:39:48.168Z,5.70
2023-02-12T02:42:14.681Z,5.70
2023-02-12T02:44:48.891Z,5.80
2023-02-12T02:47:17.154Z,5.80
2023-02-12T02:49:48.733Z,5.80
2023-02-12T02:52:31.826Z,5.80
2023-02-12T02:55:02.641Z,5.80
2023-02-12T02:57:36.444Z,5.70
2023-02-12T03:00:07.074Z,5.70
2023-02-12T03:02:36.800Z,5.70
2023-02-12T03:05:09.492Z,5.70
2023-02-12T03:07:41.963Z,5.60
2023-02-12T03:10:14.779Z,5.60
2023-02-12T03:12:41.366Z,5.60
2023-02-12T03:15:10.215Z,5.70
2023-02-12T03:17:45.204Z,5.70
2023-02-12T03:20:17.289Z,5.80
2023-02-12T03:22:48.089Z,5.70
2023-02-12T03:25:23.663Z,5.70
2023-02-12T03:27:54.724Z,5.70
2023-02-12T03:30:22.925Z,5.70
2023-02-12T03:32:57.642Z,5.70
2023-02-12T03:35:28.861Z,5.70
2023-02-12T03:38:04.772Z,5.70
2023-02-12T03:40:34.828Z,5.70
2023-02-12T03:43:23.799Z,5.70
2023-02-12T03:45:54.396Z,5.60
2023-02-12T03:48:33.607Z,5.60
2023-02-12T03:51:15.468Z,5.60
2023-02-12T03:53:44.061Z,5.60
2023-02-12T03:56:13.335Z,5.60
2023-02-12T03:58:41.246Z,5.70
2023-02-12T04:01:08.131Z,5.60
2023-02-12T04:03:34.790Z,5.60
2023-02-12T04:06:01.315Z,5.60
2023-02-12T04:08:28.470Z,5.60
2023-02-12T04:11:10.412Z,5.60
2023-02-12T04:13:52.477Z,5.70
2023-02-12T04:16:37.859Z,5.70
2023-02-12T04:19:04.791Z,5.80
2023-02-12T04:21:44.734Z,5.80
2023-02-12T04:24:26.555Z,5.80
2023-02-12T04:26:59.344Z,5.80
2023-02-12T04:29:44.639Z,5.80
2023-02-12T04:32:14.814Z,5.80
2023-02-12T04:34:44.425Z,5.80
2023-02-12T04:37:17.017Z,5.80
2023-02-12T04:39:44.771Z,5.80
2023-02-12T04:42:11.469Z,5.80
2023-02-12T04:44:39.848Z,5.80
2023-02-12T04:47:06.428Z,5.90
2023-02-12T04:49:33.050Z,5.90
2023-02-12T04:51:59.633Z,5.80
2023-02-12T04:54:26.226Z,5.90
2023-02-12T04:56:52.861Z,5.90
2023-02-12T04:59:19.514Z,5.90
2023-02-12T05:01:46.192Z,5.80
2023-02-12T05:04:15.065Z,6.00
2023-02-12T05:06:42.216Z,5.90
2023-02-12T05:09:09.908Z,5.80
2023-02-12T05:11:36.411Z,5.80
2023-02-12T05:14:03.023Z,5.80
2023-02-12T05:16:29.581Z,5.80
2023-02-12T05:18:56.547Z,5.80
2023-02-12T05:21:23.278Z,5.70
2023-02-12T05:23:49.808Z,5.70
2023-02-12T05:26:18.076Z,5.80
2023-02-12T05:28:44.958Z,5.80
2023-02-12T05:31:13.947Z,5.70
2023-02-12T05:33:44.562Z,5.70
2023-02-12T05:36:12.686Z,5.70
2023-02-12T05:38:39.313Z,5.70
2023-02-12T05:41:13.692Z,5.70
2023-02-12T05:43:40.817Z,5.70
2023-02-12T05:46:08.064Z,5.70
2023-02-12T05:48:35.151Z,5.70
2023-02-12T05:51:02.921Z,5.70
2023-02-12T05:53:30.026Z,5.70
2023-02-12T05:56:05.784Z,5.70
2023-02-12T05:58:32.371Z,5.60
2023-02-12T06:00:58.928Z,5.60
2023-02-12T06:03:25.491Z,5.60
2023-02-12T06:05:52.592Z,5.60
2023-02-12T06:08:19.439Z,5.60
2023-02-12T06:10:46.028Z,5.70
2023-02-12T06:13:12.555Z,5.60
2023-02-12T06:15:39.122Z,5.60
2023-02-12T06:18:05.664Z,5.60
2023-02-12T06:20:32.277Z,5.60
2023-02-12T06:22:58.934Z,5.60
2023-02-12T06:25:25.542Z,5.60
2023-02-12T06:27:52.144Z,5.60
2023-02-12T06:30:18.721Z,5.60
2023-02-12T06:32:48.869Z,5.60
2023-02-12T06:35:15.489Z,5.70
2023-02-12T06:37:42.092Z,5.60
2023-02-12T06:40:08.997Z,5.60
2023-02-12T06:42:37.770Z,5.60
2023-02-12T06:45:04.526Z,5.60
2023-02-12T06:47:31.153Z,5.60
2023-02-12T06:49:57.747Z,5.60
2023-02-12T06:52:24.268Z,5.60
2023-02-12T06:54:50.893Z,5.60
2023-02-12T06:57:17.455Z,5.60
2023-02-12T06:59:44.028Z,5.70
2023-02-12T07:02:11.723Z,5.70
2023-02-12T07:04:38.890Z,5.70
2023-02-12T07:07:05.491Z,5.80
2023-02-12T07:09:32.417Z,5.90
2023-02-12T07:11:59.223Z,5.90
2023-02-12T07:14:28.206Z,6.00
2023-02-12T07:16:57.275Z,6.00
2023-02-12T07:19:24.118Z,6.00
2023-02-12T07:21:50.829Z,6.00
2023-02-12T07:24:18.341Z,6.00
2023-02-12T07:26:44.936Z,6.00
2023-02-12T07:29:12.566Z,6.00
2023-02-12T07:31:41.226Z,6.00
2023-02-12T07:34:10.575Z,6.10
2023-02-12T07:36:37.203Z,6.10
2023-02-12T07:39:03.907Z,6.10
2023-02-12T07:41:34.715Z,6.10
2023-02-12T07:44:07.381Z,6.10
2023-02-12T07:46:36.148Z,6.10
2023-02-12T07:49:05.346Z,6.10
2023-02-12T07:51:33.055Z,6.20
2023-02-12T07:54:01.144Z,6.20
2023-02-12T07:56:31.007Z,6.20
2023-02-12T07:58:58.549Z,6.20
2023-02-12T08:01:29.538Z,6.30
2023-02-12T08:04:00.386Z,6.30
2023-02-12T08:06:28.469Z,6.30
2023-02-12T08:08:55.956Z,6.50
2023-02-12T08:11:23.306Z,6.50
2023-02-12T08:13:53.040Z,6.60
2023-02-12T08:16:23.743Z,6.60
2023-02-12T08:18:50.671Z,6.70
2023-02-12T08:21:18.421Z,6.70
2023-02-12T08:23:45.329Z,6.90
2023-02-12T08:26:14.409Z,6.90
2023-02-12T08:28:43.424Z,7.00
2023-02-12T08:31:11.745Z,7.10
2023-02-12T08:33:38.257Z,7.20
2023-02-12T08:36:06.128Z,7.30
2023-02-12T08:38:33.348Z,7.30
2023-02-12T08:41:13.691Z,7.60
2023-02-12T08:43:40.726Z,7.70
2023-02-12T08:46:14.560Z,7.70
2023-02-12T08:48:41.972Z,7.80
2023-02-12T08:51:08.526Z,7.80
2023-02-12T08:53:35.482Z,7.90
2023-02-12T08:56:02.181Z,8.00
2023-02-12T08:58:28.740Z,8.00
2023-02-12T09:00:55.410Z,8.00
2023-02-12T09:03:22.022Z,8.00
2023-02-12T09:05:48.773Z,8.00
2023-02-12T09:08:15.305Z,8.10
2023-02-12T09:10:42.572Z,8.10
2023-02-12T09:13:09.800Z,8.20
2023-02-12T09:15:37.240Z,8.20
2023-02-12T09:18:04.047Z,8.30
2023-02-12T09:20:31.145Z,8.40
2023-02-12T09:23:00.854Z,8.40
2023-02-12T09:25:27.429Z,8.40
2023-02-12T09:27:55.165Z,8.40
2023-02-12T09:30:21.797Z,8.40
2023-02-12T09:32:48.360Z,8.40
2023-02-12T09:35:15.057Z,8.50
2023-02-12T09:37:41.710Z,8.50
2023-02-12T09:40:08.629Z,8.60
2023-02-12T09:42:49.124Z,8.70
2023-02-12T09:45:21.181Z,8.70
2023-02-12T09:47:51.329Z,8.70
2023-02-12T09:50:24.193Z,8.80
2023-02-12T09:52:51.022Z,8.90
2023-02-12T09:55:18.658Z,9.00
2023-02-12T09:57:46.119Z,9.00
2023-02-12T10:00:22.228Z,9.00
2023-02-12T10:02:50.389Z,9.10
2023-02-12T10:05:18.834Z,9.30
2023-02-12T10:08:04.231Z,9.50
2023-02-12T10:10:47.175Z,9.50
2023-02-12T10:13:32.725Z,9.50
2023-02-12T10:16:02.321Z,9.80
2023-02-12T10:18:35.140Z,9.80
2023-02-12T10:21:08.016Z,9.80
2023-02-12T10:23:44.775Z,9.80
2023-02-12T10:26:11.359Z,9.90
2023-02-12T10:28:40.019Z,9.70
2023-02-12T10:31:15.686Z,9.80
2023-02-12T10:33:42.167Z,9.60
2023-02-12T10:36:27.511Z,9.60
2023-02-12T10:38:58.885Z,9.60
2023-02-12T10:41:28.205Z,9.70
2023-02-12T10:43:54.725Z,9.90
2023-02-12T10:46:21.390Z,10.00
2023-02-12T10:48:49.818Z,9.80
2023-02-12T10:51:25.206Z,9.80
2023-02-12T10:53:51.796Z,9.70
2023-02-12T10:56:20.119Z,10.00
2023-02-12T10:58:49.566Z,10.20
2023-02-12T11:01:22.149Z,10.30
2023-02-12T11:03:48.782Z,10.50
2023-02-12T11:06:17.830Z,10.70
2023-02-12T11:08:44.686Z,10.70
2023-02-12T11:11:11.362Z,10.80
2023-02-12T11:13:39.706Z,10.90
2023-02-12T11:16:06.687Z,10.90
2023-02-12T11:18:34.002Z,11.20
2023-02-12T11:21:10.750Z,11.00
2023-02-12T11:23:41.636Z,11.10
2023-02-12T11:26:20.118Z,11.30
2023-02-12T11:28:53.595Z,11.70
2023-02-12T11:31:22.472Z,11.80
2023-02-12T11:34:04.453Z,11.90
2023-02-12T11:36:32.971Z,12.00
2023-02-12T11:38:59.618Z,11.50
2023-02-12T11:41:26.574Z,11.90
2023-02-12T11:43:53.695Z,11.70
2023-02-12T11:46:22.215Z,12.00
2023-02-12T11:48:49.202Z,11.80
2023-02-12T11:51:21.412Z,11.90
2023-02-12T11:53:49.898Z,11.80
2023-02-12T11:56:16.785Z,12.10
2023-02-12T11:58:44.803Z,12.10
2023-02-12T12:01:14.343Z,11.70
2023-02-12T12:03:43.966Z,11.50
2023-02-12T12:06:13.521Z,11.50
2023-02-12T12:08:48.233Z,11.60
2023-02-12T12:11:16.646Z,11.60
2023-02-12T12:13:47.640Z,11.70
2023-02-12T12:16:36.691Z,11.80
2023-02-12T12:19:25.039Z,11.70
2023-02-12T12:22:13.773Z,11.90
2023-02-12T12:24:47.746Z,11.90
2023-02-12T12:27:37.819Z,11.80
2023-02-12T12:30:07.913Z,11.80
2023-02-12T12:32:36.427Z,11.40
2023-02-12T12:35:03.005Z,11.30
2023-02-12T12:37:39.105Z,11.40
2023-02-12T12:40:13.290Z,11.50
2023-02-12T12:42:49.194Z,11.60
2023-02-12T12:45:35.664Z,11.30
2023-02-12T12:48:02.314Z,11.30
2023-02-12T12:50:47.237Z,11.00
2023-02-12T12:53:13.756Z,11.20
2023-02-12T12:55:50.273Z,11.00
2023-02-12T12:58:16.824Z,11.00
2023-02-12T13:00:57.789Z,11.50
2023-02-12T13:03:43.221Z,11.60
2023-02-12T13:06:16.017Z,11.70
2023-02-12T13:08:49.753Z,11.50
2023-02-12T13:11:23.067Z,11.10
2023-02-12T13:13:51.460Z,11.20
2023-02-12T13:16:21.401Z,11.30
2023-02-12T13:19:06.456Z,11.40
2023-02-12T13:21:57.322Z,11.40
2023-02-12T13:24:26.670Z,11.50
2023-02-12T13:26:58.153Z,11.70
2023-02-12T13:29:28.049Z,11.70
2023-02-12T13:32:05.825Z,11.90
2023-02-12T13:34:34.063Z,11.90
2023-02-12T13:37:01.387Z,11.90
2023-02-12T13:39:47.877Z,11.80
2023-02-12T13:42:29.763Z,11.60
2023-02-12T13:45:15.236Z,11.40
2023-02-12T13:47:55.248Z,11.30
2023-02-12T13:50:31.351Z,11.20
2023-02-12T13:53:16.761Z,11.30
2023-02-12T13:56:06.599Z,11.30
2023-02-12T13:58:39.314Z,11.40
2023-02-12T14:01:08.712Z,11.40
2023-02-12T14:03:36.506Z,11.40
2023-02-12T14:06:21.617Z,11.30
2023-02-12T14:08:50.649Z,11.30
2023-02-12T14:11:19.228Z,11.20
2023-02-12T14:13:52.479Z,11.00
2023-02-12T14:16:34.643Z,11.00
2023-02-12T14:19:20.135Z,11.00
2023-02-12T14:21:46.771Z,11.00
2023-02-12T14:24:32.268Z,11.20
2023-02-12T14:26:59.094Z,11.20
2023-02-12T14:29:26.395Z,11.10
2023-02-12T14:31:53.102Z,11.10
2023-02-12T14:34:22.463Z,11.00
2023-02-12T14:37:08.976Z,11.20
2023-02-12T14:39:35.520Z,11.20
2023-02-12T14:42:11.326Z,11.10
2023-02-12T14:44:39.062Z,11.10
2023-02-12T14:47:14.284Z,11.10
2023-02-12T14:49:44.503Z,11.10
2023-02-12T14:52:11.667Z,11.10
2023-02-12T14:54:57.837Z,11.10
2023-02-12T14:57:24.391Z,11.20
2023-02-12T14:59:52.641Z,11.10
2023-02-12T15:02:24.817Z,11.00
2023-02-12T15:04:53.017Z,10.90
2023-02-12T15:07:35.616Z,10.90
2023-02-12T15:10:10.677Z,10.90
2023-02-12T15:12:44.095Z,10.90
2023-02-12T15:15:13.446Z,10.90
2023-02-12T15:17:41.524Z,10.80
2023-02-12T15:20:13.299Z,10.80
2023-02-12T15:22:40.233Z,10.90
2023-02-12T15:25:25.154Z,10.90
2023-02-12T15:27:53.994Z,10.80
2023-02-12T15:30:26.302Z,10.80
2023-02-12T15:32:55.436Z,10.70
2023-02-12T15:35:27.387Z,10.80
2023-02-12T15:37:55.515Z,10.80
2023-02-12T15:40:22.520Z,10.70
2023-02-12T15:42:52.006Z,10.70
2023-02-12T15:45:20.406Z,10.60
2023-02-12T15:47:56.681Z,10.60
2023-02-12T15:50:23.580Z,10.50
2023-02-12T15:52:50.864Z,10.50
2023-02-12T15:55:22.743Z,10.40
2023-02-12T15:57:53.108Z,10.50
2023-02-12T16:00:31.942Z,10.40
2023-02-12T16:02:58.540Z,10.40
2023-02-12T16:05:25.669Z,10.40
2023-02-12T16:07:52.610Z,10.40
2023-02-12T16:10:19.890Z,10.30
2023-02-12T16:12:47.378Z,10.30
2023-02-12T16:15:24.101Z,10.30
2023-02-12T16:17:50.609Z,10.20
2023-02-12T16:20:18.993Z,10.20
2023-02-12T16:22:46.885Z,10.20
2023-02-12T16:25:22.479Z,10.20
2023-02-12T16:27:55.606Z,10.20
2023-02-12T16:30:24.816Z,10.10
2023-02-12T16:32:51.424Z,10.10
2023-02-12T16:35:17.990Z,10.10
2023-02-12T16:37:46.281Z,10.10
2023-02-12T16:40:12.835Z,10.20
2023-02-12T16:42:39.528Z,10.10
2023-02-12T16:45:32.370Z,10.10
2023-02-12T16:48:08.501Z,10.10
2023-02-12T16:50:36.366Z,10.00
2023-02-12T16:53:04.723Z,10.00
2023-02-12T16:55:32.033Z,10.00
2023-02-12T16:57:59.743Z,9.90
2023-02-12T17:00:26.749Z,9.90
2023-02-12T17:02:57.015Z,9.90
2023-02-12T17:05:23.925Z,9.90
2023-02-12T17:07:50.908Z,9.80
2023-02-12T17:10:17.832Z,9.80
2023-02-12T17:12:45.651Z,9.80
2023-02-12T17:15:17.441Z,9.80
2023-02-12T17:17:44.040Z,9.80
2023-02-12T17:20:10.924Z,9.70
2023-02-12T17:22:37.535Z,9.70
2023-02-12T17:25:04.514Z,9.70
2023-02-12T17:27:31.154Z,9.60
2023-02-12T17:30:00.833Z,9.60
2023-02-12T17:32:27.350Z,9.60
2023-02-12T17:34:53.905Z,9.60
2023-02-12T17:37:22.224Z,9.70
2023-02-12T17:39:48.798Z,9.70
2023-02-12T17:42:15.412Z,9.70
2023-02-12T17:44:42.026Z,9.70
2023-02-12T17:47:08.613Z,9.70
2023-02-12T17:49:35.557Z,9.70
2023-02-12T17:52:02.403Z,9.70
2023-02-12T17:54:28.977Z,9.70
2023-02-12T17:56:55.473Z,9.60
2023-02-12T17:59:24.908Z,9.60
2023-02-12T18:01:51.640Z,9.60
2023-02-12T18:04:18.197Z,9.50
2023-02-12T18:06:44.764Z,9.60
2023-02-12T18:09:11.360Z,9.50
2023-02-12T18:11:40.241Z,9.50
2023-02-12T18:14:06.791Z,9.50
2023-02-12T18:16:34.789Z,9.50
2023-02-12T18:19:04.424Z,9.50
2023-02-12T18:21:31.090Z,9.50
2023-02-12T18:23:57.744Z,9.50
2023-02-12T18:26:24.396Z,9.40
2023-02-12T18:28:51.058Z,9.40
2023-02-12T18:31:18.734Z,9.40
2023-02-12T18:33:45.422Z,9.40
2023-02-12T18:36:13.854Z,9.40
2023-02-12T18:38:43.839Z,9.40
2023-02-12T18:41:18.430Z,9.40
2023-02-12T18:43:45.094Z,9.40
2023-02-12T18:46:19.221Z,9.30
2023-02-12T18:48:46.132Z,9.30
2023-02-12T18:51:16.592Z,9.40
2023-02-12T18:53:43.228Z,9.40
2023-02-12T18:56:10.475Z,9.40
2023-02-12T18:58:37.348Z,9.40
2023-02-12T19:01:22.714Z,9.40
2023-02-12T19:03:52.660Z,9.40
2023-02-12T19:06:19.287Z,9.40
2023-02-12T19:08:45.873Z,9.40
2023-02-12T19:11:14.810Z,9.40
2023-02-12T19:13:42.063Z,9.30
2023-02-12T19:16:09.870Z,9.30
2023-02-12T19:18:36.421Z,9.30
2023-02-12T19:21:09.031Z,9.20
2023-02-12T19:23:35.806Z,9.20
2023-02-12T19:26:05.374Z,9.20
2023-02-12T19:28:32.105Z,9.20
2023-02-12T19:31:00.029Z,9.20
2023-02-12T19:33:26.839Z,9.20
2023-02-12T19:35:53.644Z,9.20
2023-02-12T19:38:20.532Z,9.20
2023-02-12T19:40:47.147Z,9.20
2023-02-12T19:43:13.738Z,9.20
2023-02-12T19:45:40.332Z,9.20
2023-02-12T19:48:06.963Z,9.20
2023-02-12T19:50:35.335Z,9.20
2023-02-12T19:53:02.044Z,9.20
2023-02-12T19:55:28.620Z,9.20
2023-02-12T19:57:55.207Z,9.10
2023-02-12T20:00:21.812Z,9.20
2023-02-12T20:02:48.448Z,9.20
2023-02-12T20:05:15.090Z,9.10
2023-02-12T20:07:41.755Z,9.10
2023-02-12T20:10:08.434Z,9.10
2023-02-12T20:12:40.045Z,9.10
2023-02-12T20:15:06.693Z,9.10
2023-02-12T20:17:33.269Z,9.10
2023-02-12T20:19:59.903Z,9.10
2023-02-12T20:22:26.466Z,9.00
2023-02-12T20:24:53.118Z,9.10
2023-02-12T20:27:19.715Z,9.00
2023-02-12T20:29:46.272Z,9.00
2023-02-12T20:32:12.967Z,9.00
2023-02-12T20:34:50.204Z,9.10
2023-02-12T20:37:18.782Z,9.10
2023-02-12T20:39:45.496Z,9.00
2023-02-12T20:42:12.293Z,9.00
2023-02-12T20:44:38.885Z,9.00
2023-02-12T20:47:05.513Z,9.00
2023-02-12T20:49:32.081Z,9.00
2023-02-12T20:51:58.677Z,9.00
2023-02-12T20:54:25.811Z,8.90
2023-02-12T20:56:52.557Z,8.90
2023-02-12T20:59:20.196Z,8.90
2023-02-12T21:01:47.337Z,8.90
2023-02-12T21:04:16.868Z,8.90
2023-02-12T21:06:44.571Z,8.90
2023-02-12T21:09:11.978Z,9.00
2023-02-12T21:11:39.908Z,8.90
2023-02-12T21:14:24.112Z,8.90
2023-02-12T21:16:52.272Z,9.00
2023-02-12T21:19:19.369Z,8.90
2023-02-12T21:21:46.404Z,9.00
2023-02-12T21:24:17.629Z,8.90
2023-02-12T21:26:44.476Z,8.90
2023-02-12T21:29:11.523Z,8.90
2023-02-12T21:31:44.576Z,8.80
2023-02-12T21:34:13.071Z,8.80
2023-02-12T21:36:41.334Z,8.90
2023-02-12T21:39:08.991Z,8.80
2023-02-12T21:41:36.788Z,8.90
2023-02-12T21:44:22.187Z,8.80
2023-02-12T21:46:48.887Z,8.80
2023-02-12T21:49:23.102Z,8.80
2023-02-12T21:51:50.035Z,8.80
2023-02-12T21:54:16.562Z,8.80
2023-02-12T21:56:44.041Z,8.80
2023-02-12T21:59:10.768Z,8.80
2023-02-12T22:01:38.552Z,8.80
2023-02-12T22:04:06.630Z,8.80
2023-02-12T22:06:33.671Z,8.80
2023-02-12T22:09:01.295Z,8.80
2023-02-12T22:11:27.887Z,8.80
2023-02-12T22:13:54.604Z,8.80
2023-02-12T22:16:22.403Z,8.80
2023-02-12T22:18:51.055Z,8.80
2023-02-12T22:21:17.732Z,8.80
2023-02-12T22:23:44.989Z,8.70
2023-02-12T22:26:13.018Z,8.80
2023-02-12T22:28:58.669Z,8.80
2023-02-12T22:31:29.840Z,8.80
2023-02-12T22:33:57.513Z,8.70
2023-02-12T22:36:27.235Z,8.70
2023-02-12T22:38:55.195Z,8.70
2023-02-12T22:41:21.902Z,8.70
2023-02-12T22:43:48.878Z,8.70
2023-02-12T22:46:15.997Z,8.70
2023-02-12T22:48:43.046Z,8.80
2023-02-12T22:51:10.823Z,8.70
2023-02-12T22:53:37.668Z,8.80
2023-02-12T22:56:07.805Z,8.70
2023-02-12T22:58:34.606Z,8.70
2023-02-12T23:01:08.345Z,8.70
2023-02-12T23:03:37.329Z,8.70
2023-02-12T23:06:04.906Z,8.60
2023-02-12T23:08:31.821Z,8.70
2023-02-12T23:10:59.065Z,8.70
2023-02-12T23:13:29.914Z,8.70
2023-02-12T23:15:57.813Z,8.70
2023-02-12T23:18:24.994Z,8.70
2023-02-12T23:20:52.510Z,8.70
2023-02-12T23:23:20.045Z,8.70
2023-02-12T23:25:46.943Z,8.70
2023-02-12T23:28:13.895Z,8.70
2023-02-12T23:30:40.767Z,8.70
2023-02-12T23:33:10.205Z,8.70
2023-02-12T23:35:37.099Z,8.70
2023-02-12T23:38:04.550Z,8.70
2023-02-12T23:40:31.810Z,8.70
2023-02-12T23:45:28.077Z,8.70
2023-02-12T23:47:55.282Z,8.70
2023-02-12T23:50:22.314Z,8.70
2023-02-12T23:52:49.300Z,8.70
2023-02-12T23:55:16.428Z,8.70
2023-02-12T23:57:45.801Z,8.70
